Time;durP1;ratioP1;P1;durP2;ratioP2;P2;SDS_P1;SDS_P2;PMS_P1;PMS_P2;Temp;Humidity;BMP_temperature;BMP_pressure;BME280_temperature;BME280_humidity;BME280_pressure;Samples;Min_cycle;Max_cycle;Signal;HPM_P1;HPM_P2
2022/01/13 00:02:21;;;;;;;153.32;34.13;;;;;;;8.39;100.00;104031.72;5053876;28;20032;-55
2022/01/13 00:04:47;;;;;;;175.23;35.92;;;;;;;8.47;100.00;104027.56;5035895;28;20112;-52
2022/01/13 00:07:13;;;;;;;141.32;33.78;;;;;;;8.64;100.00;104030.97;5053565;28;20037;-53
2022/01/13 00:09:39;;;;;;;137.35;30.58;;;;;;;7.83;100.00;104022.84;5036253;28;20036;-58
2022/01/13 00:12:08;;;;;;;126.57;33.08;;;;;;;7.77;100.00;104027.75;5035370;28;20033;-57
2022/01/13 00:24:54;;;;;;;184.60;35.72;;;;;;;7.83;100.00;104008.69;5053238;28;20048;-52
2022/01/13 00:27:23;;;;;;;190.63;35.17;;;;;;;8.12;100.00;104012.13;5053075;28;20044;-56
2022/01/13 00:29:48;;;;;;;181.90;35.00;;;;;;;8.26;100.00;103997.88;5053120;28;20041;-53
2022/01/13 00:32:15;;;;;;;170.43;32.77;;;;;;;7.89;100.00;103995.81;5053298;28;20048;-52
2022/01/13 00:34:43;;;;;;;190.60;35.55;;;;;;;8.10;100.00;103995.38;5056484;28;20035;-52
2022/01/13 00:37:09;;;;;;;143.13;31.80;;;;;;;8.18;100.00;103989.50;5058261;28;20033;-53
2022/01/13 00:39:35;;;;;;;227.25;33.05;;;;;;;8.16;100.00;103992.28;5035640;28;20082;-52
2022/01/13 00:42:00;;;;;;;135.73;32.10;;;;;;;8.28;100.00;103989.75;5052231;28;20025;-51
2022/01/13 00:44:26;;;;;;;155.43;29.50;;;;;;;7.88;100.00;103986.13;5053594;28;20278;-53
2022/01/13 00:46:59;;;;;;;129.10;31.77;;;;;;;8.06;100.00;103999.19;5034890;28;20041;-51
2022/01/13 00:49:25;;;;;;;130.00;29.75;;;;;;;7.84;100.00;104000.59;5061554;28;20045;-54
2022/01/13 00:51:51;;;;;;;154.98;30.58;;;;;;;7.89;100.00;103992.28;5038450;28;20108;-54
2022/01/13 00:54:17;;;;;;;133.77;27.23;;;;;;;8.34;100.00;103997.38;5072596;28;20123;-55
2022/01/13 00:56:42;;;;;;;144.90;30.00;;;;;;;8.55;100.00;104012.91;5054937;28;20046;-54
2022/01/13 00:59:13;;;;;;;129.88;27.27;;;;;;;7.73;100.00;104000.44;5054405;28;20292;-55
2022/01/13 01:01:44;;;;;;;135.90;28.30;;;;;;;7.87;100.00;104003.06;5038658;28;20037;-54
2022/01/13 01:04:10;;;;;;;135.13;26.52;;;;;;;7.79;100.00;103991.19;5061374;28;20040;-56
2022/01/13 01:06:36;;;;;;;104.17;24.47;;;;;;;8.08;100.00;104002.63;5056703;28;20342;-56
2022/01/13 01:09:03;;;;;;;92.00;18.13;;;;;;;7.82;100.00;104002.47;5052725;28;20737;-52
2022/01/13 01:11:29;;;;;;;106.05;23.25;;;;;;;7.57;100.00;104005.88;5052855;28;20043;-56
2022/01/13 01:13:57;;;;;;;109.40;23.87;;;;;;;7.81;100.00;104007.94;5065892;28;20033;-55
2022/01/13 01:16:24;;;;;;;108.72;23.90;;;;;;;7.45;100.00;104002.19;5072083;28;20273;-54
2022/01/13 01:18:55;;;;;;;89.00;23.85;;;;;;;8.13;100.00;103997.84;5038230;28;20029;-54
2022/01/13 01:29:04;;;;;;;101.53;23.75;;;;;;;7.66;100.00;104007.09;5052664;28;20040;-56
2022/01/13 01:31:34;;;;;;;135.20;24.77;;;;;;;7.74;100.00;104012.78;5052366;28;20072;-56
2022/01/13 01:36:28;;;;;;;102.88;26.38;;;;;;;7.95;100.00;104012.38;5052268;28;20047;-55
2022/01/13 01:38:56;;;;;;;119.40;26.47;;;;;;;7.69;100.00;104005.09;5052566;28;20112;-55
2022/01/13 01:41:21;;;;;;;118.35;26.60;;;;;;;7.90;100.00;104002.00;5050253;28;20058;-56
2022/01/13 01:43:48;;;;;;;119.53;25.87;;;;;;;8.35;100.00;103995.53;5054001;28;20496;-56
2022/01/13 01:46:14;;;;;;;139.30;28.40;;;;;;;8.08;100.00;103994.63;5051755;28;20060;-55
2022/01/13 01:48:39;;;;;;;127.27;25.90;;;;;;;8.21;100.00;104001.78;5052516;28;20071;-56
2022/01/13 01:51:05;;;;;;;123.57;26.30;;;;;;;8.43;100.00;103993.22;5056184;28;20119;-55
2022/01/13 01:53:31;;;;;;;132.93;31.10;;;;;;;7.79;100.00;103984.03;5050795;28;20052;-52
2022/01/13 01:55:57;;;;;;;114.75;28.35;;;;;;;8.06;100.00;103977.00;5058066;28;20040;-54
2022/01/13 01:58:26;;;;;;;121.28;26.88;;;;;;;8.43;100.00;103988.75;5075639;28;20063;-54
2022/01/13 02:00:53;;;;;;;119.72;27.85;;;;;;;8.46;100.00;103987.69;5075596;28;20054;-54
2022/01/13 02:03:19;;;;;;;145.48;28.13;;;;;;;7.96;100.00;103990.09;5075838;28;20090;-56
2022/01/13 02:05:44;;;;;;;144.82;26.27;;;;;;;8.40;100.00;103982.75;5076029;28;20037;-55
2022/01/13 02:08:10;;;;;;;125.43;29.63;;;;;;;8.44;100.00;103990.44;5075571;28;20110;-55
2022/01/13 02:10:35;;;;;;;164.17;32.10;;;;;;;8.06;100.00;103993.84;5076049;28;20037;-55
2022/01/13 02:13:06;;;;;;;140.53;28.03;;;;;;;8.39;100.00;103991.72;5058175;28;20433;-53
2022/01/13 02:15:35;;;;;;;162.32;31.45;;;;;;;8.38;100.00;103990.88;5075824;28;20037;-52
2022/01/13 02:18:04;;;;;;;171.77;33.17;;;;;;;8.36;100.00;103998.13;5075775;28;20036;-57
2022/01/13 02:20:51;;;;;;;160.80;30.33;;;;;;;8.14;100.00;103988.88;5040900;28;20608;-55
2022/01/13 02:23:39;;;;;;;148.45;31.02;;;;;;;8.28;100.00;103990.63;5075362;28;20127;-54
2022/01/13 02:26:07;;;;;;;147.45;29.92;;;;;;;8.33;100.00;103987.66;5075990;28;20503;-55
2022/01/13 02:28:34;;;;;;;153.90;32.03;;;;;;;8.62;100.00;103990.19;5075268;28;20044;-54
2022/01/13 02:31:00;;;;;;;163.65;32.75;;;;;;;8.77;100.00;103990.94;5075352;28;20037;-56
2022/01/13 02:33:26;;;;;;;177.38;33.08;;;;;;;8.95;100.00;104004.81;5057279;28;20365;-42
2022/01/13 02:35:52;;;;;;;170.98;35.53;;;;;;;8.72;100.00;103999.25;5057514;28;20453;-42
2022/01/13 02:38:18;;;;;;;180.30;31.95;;;;;;;8.66;100.00;103991.69;5057368;28;20040;-43
2022/01/13 02:40:44;;;;;;;198.80;34.95;;;;;;;8.31;100.00;103989.56;5076067;28;20142;-43
2022/01/13 02:43:10;;;;;;;156.87;31.03;;;;;;;8.66;100.00;103988.19;5075242;28;20063;-43
2022/01/13 02:45:39;;;;;;;197.48;32.13;;;;;;;8.67;100.00;103990.72;5057624;28;20607;-43
2022/01/13 02:50:48;;;;;;;180.45;33.85;;;;;;;8.88;100.00;103980.41;5060397;28;20464;-44
2022/01/13 02:53:13;;;;;;;213.65;37.92;;;;;;;8.34;100.00;103984.03;5075781;28;20139;-44
2022/01/13 02:55:39;;;;;;;208.07;32.38;;;;;;;8.52;100.00;103981.09;5074799;28;20032;-43
2022/01/13 02:58:04;;;;;;;202.37;32.57;;;;;;;8.71;100.00;103976.22;5057296;28;20056;-43
2022/01/13 03:00:30;;;;;;;213.00;35.77;;;;;;;8.45;100.00;103970.81;5074789;28;20040;-43
2022/01/13 03:02:56;;;;;;;186.50;33.85;;;;;;;8.36;100.00;103970.59;5056854;28;20036;-43
2022/01/13 03:05:21;;;;;;;244.23;37.97;;;;;;;8.50;100.00;103967.00;5074364;28;20040;-47
2022/01/13 03:07:47;;;;;;;234.10;34.13;;;;;;;8.18;100.00;103960.19;5056923;28;20049;-42
2022/01/13 03:10:13;;;;;;;164.03;31.80;;;;;;;8.40;100.00;103972.94;5075111;28;20302;-44
2022/01/13 03:12:42;;;;;;;174.65;32.00;;;;;;;8.75;100.00;103959.03;5074550;28;20042;-43
2022/01/13 03:15:08;;;;;;;215.23;34.35;;;;;;;8.35;100.00;103963.53;5074463;28;20090;-44
2022/01/13 03:17:34;;;;;;;238.85;38.15;;;;;;;8.27;100.00;103956.06;5074539;28;20040;-43
2022/01/13 03:19:59;;;;;;;152.13;27.33;;;;;;;8.22;100.00;103952.84;5074888;28;20456;-43
2022/01/13 03:22:25;;;;;;;263.98;39.40;;;;;;;7.88;100.00;103948.81;5056744;28;20041;-44
2022/01/13 03:24:50;;;;;;;270.13;38.30;;;;;;;8.24;100.00;103953.59;5075226;28;20090;-43
2022/01/13 03:27:22;;;;;;;206.63;36.78;;;;;;;8.68;100.00;103954.25;5074440;28;20040;-43
2022/01/13 03:29:48;;;;;;;218.50;34.45;;;;;;;8.26;100.00;103957.00;5057140;28;20040;-47
2022/01/13 03:32:15;;;;;;;217.75;34.50;;;;;;;8.10;100.00;103949.19;5039897;28;20043;-44
2022/01/13 03:34:40;;;;;;;248.80;36.83;;;;;;;8.32;100.00;103945.94;5056523;28;20314;-48
2022/01/13 03:37:06;;;;;;;232.17;38.17;;;;;;;8.11;100.00;103943.78;5074277;28;20281;-46
2022/01/13 03:39:32;;;;;;;170.07;35.65;;;;;;;8.42;100.00;103946.16;5074460;28;20379;-43
2022/01/13 03:41:58;;;;;;;223.75;39.97;;;;;;;8.40;100.00;103954.28;5074308;28;20068;-43
2022/01/13 03:44:29;;;;;;;252.55;37.42;;;;;;;8.55;100.00;103960.41;5073855;28;20036;-46
2022/01/13 03:46:59;;;;;;;300.20;40.65;;;;;;;8.39;100.00;103949.91;5074408;28;20457;-45
2022/01/13 03:49:25;;;;;;;251.35;38.90;;;;;;;8.10;100.00;103949.19;5055970;28;20051;-42
2022/01/13 03:51:59;;;;;;;207.40;38.42;;;;;;;8.27;100.00;103950.72;5074048;28;20033;-43
2022/01/13 03:54:31;;;;;;;212.82;36.78;;;;;;;8.29;100.00;103949.66;5074228;28;20032;-45
2022/01/13 03:57:44;;;;;;;271.42;39.58;;;;;;;7.97;100.00;103949.16;5074058;28;20117;-46
2022/01/13 04:00:47;;;;;;;231.60;39.38;;;;;;;7.92;100.00;103945.94;4996273;28;20362;-42
2022/01/13 04:03:12;;;;;;;213.57;32.25;;;;;;;7.95;100.00;103949.25;5073777;28;20059;-46
2022/01/13 04:06:09;;;;;;;215.37;35.97;;;;;;;7.92;100.00;103943.28;5055747;28;20102;-45
2022/01/13 04:08:35;;;;;;;242.73;35.97;;;;;;;7.92;100.00;103945.94;5073623;28;20697;-43
2022/01/13 04:11:03;;;;;;;243.38;37.47;;;;;;;7.69;100.00;103942.97;5073482;28;20048;-42
2022/01/13 04:16:09;;;;;;;221.10;35.95;;;;;;;8.02;100.00;103949.69;5072916;28;20369;-45
2022/01/13 04:18:34;;;;;;;188.23;30.02;;;;;;;8.09;100.00;103955.47;5073134;28;20173;-44
2022/01/13 04:21:01;;;;;;;210.90;32.30;;;;;;;7.43;100.00;103951.69;5073465;28;20035;-43
2022/01/13 04:23:26;;;;;;;;;;;;;;;7.53;100.00;103951.94;5055653;28;20219;-44
2022/01/13 04:25:52;;;;;;;221.90;36.87;;;;;;;7.95;100.00;103948.41;5073160;28;20095;-49
2022/01/13 04:28:17;;;;;;;204.83;32.47;;;;;;;8.09;100.00;103940.34;5054986;28;20067;-41
2022/01/13 04:33:08;;;;;;;153.43;25.40;;;;;;;7.98;100.00;103935.75;5055475;28;20063;-45
2022/01/13 04:35:34;;;;;;;210.40;32.97;;;;;;;7.43;100.00;103937.53;5073288;28;20025;-44
2022/01/13 04:37:59;;;;;;;170.70;29.17;;;;;;;7.60;100.00;103941.75;5073303;28;20090;-48
2022/01/13 04:40:25;;;;;;;176.95;29.33;;;;;;;7.10;100.00;103946.66;5055696;28;20041;-45
2022/01/13 04:42:54;;;;;;;234.45;33.22;;;;;;;7.41;100.00;103950.91;5073673;28;20441;-46
2022/01/13 04:45:21;;;;;;;175.60;29.45;;;;;;;7.06;100.00;103947.81;5073575;28;20118;-43
2022/01/13 04:47:48;;;;;;;;;;;;;;;7.59;100.00;103948.03;5055731;28;20080;-49
2022/01/13 04:50:13;;;;;;;192.32;31.23;;;;;;;8.09;100.00;103944.81;5055608;28;19908;-43
2022/01/13 04:52:39;;;;;;;204.02;30.50;;;;;;;7.36;100.00;103941.50;5073031;28;20427;-42
2022/01/13 04:55:10;;;;;;;159.33;31.23;;;;;;;7.81;100.00;103942.16;5038314;28;20040;-42
2022/01/13 04:57:35;;;;;;;228.88;36.55;;;;;;;7.81;100.00;103939.50;5073033;28;20036;-45
2022/01/13 05:00:07;;;;;;;197.77;30.30;;;;;;;7.46;100.00;103946.16;5072584;28;20041;-44
2022/01/13 05:02:32;;;;;;;176.18;28.33;;;;;;;7.66;100.00;103952.00;5072706;28;20326;-44
2022/01/13 05:04:58;;;;;;;146.70;29.50;;;;;;;7.83;100.00;103953.56;5072676;28;20037;-47
2022/01/13 05:07:23;;;;;;;175.48;30.52;;;;;;;7.76;100.00;103954.94;5021942;28;20033;-44
2022/01/13 05:09:49;;;;;;;144.33;27.37;;;;;;;7.45;100.00;103964.91;5055439;28;20036;-44
2022/01/13 05:12:15;;;;;;;176.98;32.97;;;;;;;7.55;100.00;103959.84;5072862;28;20040;-44
2022/01/13 05:14:40;;;;;;;198.80;33.08;;;;;;;7.65;100.00;103960.13;5072786;28;20410;-42
2022/01/13 05:17:12;;;;;;;146.50;25.87;;;;;;;7.39;100.00;103950.16;5054503;28;20060;-44
2022/01/13 05:19:56;;;;;;;235.70;33.13;;;;;;;7.65;100.00;103942.31;5054446;28;20143;-47
2022/01/13 05:22:21;;;;;;;170.85;31.80;;;;;;;7.45;100.00;103951.59;5072597;28;20486;-42
2022/01/13 05:24:49;;;;;;;176.57;31.08;;;;;;;7.99;100.00;103941.91;5055335;28;20124;-42
2022/01/13 05:27:14;;;;;;;204.82;31.05;;;;;;;7.77;100.00;103935.31;5072767;28;20526;-45
2022/01/13 05:29:40;;;;;;;171.50;30.42;;;;;;;7.83;100.00;103948.22;5076765;28;20041;-42
2022/01/13 05:32:06;;;;;;;158.48;29.88;;;;;;;8.13;100.00;103941.84;5042113;28;20381;-44
2022/01/13 05:34:32;;;;;;;147.65;28.58;;;;;;;7.98;100.00;103942.88;5058954;28;20120;-44
2022/01/13 05:36:57;;;;;;;184.43;30.50;;;;;;;8.11;100.00;103949.09;5042375;28;20048;-44
2022/01/13 05:39:23;;;;;;;209.23;35.57;;;;;;;7.92;100.00;103946.78;5076993;28;20059;-47
2022/01/13 05:41:48;;;;;;;212.67;34.70;;;;;;;7.70;100.00;103942.84;5059373;28;20265;-45
2022/01/13 05:44:14;;;;;;;153.10;30.00;;;;;;;7.82;100.00;103946.53;5076602;28;20041;-43
2022/01/13 05:46:39;;;;;;;220.95;34.85;;;;;;;7.75;100.00;103939.91;5058538;28;20134;-44
2022/01/13 05:49:05;;;;;;;171.07;30.95;;;;;;;7.48;100.00;103943.41;5076270;28;20126;-44
2022/01/13 05:51:32;;;;;;;170.23;31.20;;;;;;;7.48;100.00;103948.72;5058826;28;20033;-44
2022/01/13 05:53:57;;;;;;;182.27;30.05;;;;;;;7.51;100.00;103948.53;5058239;28;20036;-41
2022/01/13 05:56:23;;;;;;;175.10;33.03;;;;;;;7.77;100.00;103942.47;5076426;28;20097;-43
2022/01/13 05:58:50;;;;;;;136.98;31.23;;;;;;;8.15;100.00;103950.59;5058270;28;20052;-46
2022/01/13 06:01:16;;;;;;;175.98;32.75;;;;;;;7.93;100.00;103944.97;5076224;28;20114;-41
2022/01/13 06:03:41;;;;;;;148.27;29.70;;;;;;;7.59;100.00;103951.53;5057818;28;20037;-45
2022/01/13 06:06:07;;;;;;;136.37;23.77;;;;;;;7.40;100.00;103956.38;5076042;28;20072;-43
2022/01/13 06:08:34;;;;;;;153.03;27.37;;;;;;;7.24;100.00;103946.66;5058193;28;20543;-41
2022/01/13 06:11:00;;;;;;;156.82;32.50;;;;;;;7.31;100.00;103945.31;5058418;28;20032;-44
2022/01/13 06:13:25;;;;;;;168.70;28.00;;;;;;;7.36;100.00;103952.16;5075762;28;20041;-45
2022/01/13 06:15:51;;;;;;;171.50;28.87;;;;;;;7.39;100.00;103949.31;5075714;28;20772;-48
2022/01/13 06:18:16;;;;;;;179.73;29.53;;;;;;;7.10;100.00;103952.00;5075807;28;20044;-42
2022/01/13 06:20:43;;;;;;;122.33;25.20;;;;;;;7.40;100.00;103961.69;5075628;28;20033;-43
2022/01/13 06:23:10;;;;;;;177.30;27.55;;;;;;;7.04;100.00;103955.91;5075659;28;20303;-43
2022/01/13 06:25:35;;;;;;;125.70;25.13;;;;;;;7.05;100.00;103962.06;5076061;28;20029;-45
2022/01/13 06:28:02;;;;;;;161.88;26.42;;;;;;;6.70;100.00;103957.97;5075621;28;20049;-44
2022/01/13 06:30:27;;;;;;;;;;;;;;;6.78;100.00;103955.69;5075784;28;20040;-42
2022/01/13 06:32:53;;;;;;;124.17;24.20;;;;;;;6.88;100.00;103961.28;5057458;28;19912;-43
2022/01/13 06:35:18;;;;;;;165.33;26.97;;;;;;;6.94;100.00;103966.28;5024803;28;20043;-43
2022/01/13 06:37:44;;;;;;;88.53;19.73;;;;;;;6.98;100.00;103954.47;5041051;28;20036;-47
2022/01/13 06:40:12;;;;;;;95.57;22.55;;;;;;;7.18;100.00;103957.72;5040479;28;20368;-47
2022/01/13 06:42:38;;;;;;;127.57;23.33;;;;;;;7.01;100.00;103951.63;5057523;28;20487;-45
2022/01/13 06:45:05;;;;;;;93.25;22.67;;;;;;;7.16;100.00;103949.81;5075690;28;20025;-44
2022/01/13 06:47:31;;;;;;;122.95;24.08;;;;;;;6.88;100.00;103945.34;5057540;28;20060;-45
2022/01/13 06:49:56;;;;;;;93.85;21.83;;;;;;;6.65;100.00;103952.06;5057114;28;20068;-43
2022/01/13 06:52:22;;;;;;;144.40;27.13;;;;;;;7.07;100.00;103955.72;5040572;28;20047;-42
2022/01/13 06:54:48;;;;;;;103.57;20.70;;;;;;;7.34;100.00;103949.59;5057400;28;20056;-47
2022/01/13 06:57:15;;;;;;;98.78;21.10;;;;;;;6.74;100.00;103944.41;5056832;28;20042;-46
2022/01/13 06:59:41;;;;;;;160.80;27.02;;;;;;;6.85;100.00;103941.06;5075385;28;20044;-45
2022/01/13 07:02:07;;;;;;;;;;;;;;;7.28;100.00;103944.69;5074987;28;20047;-47
2022/01/13 07:04:33;;;;;;;109.17;21.33;;;;;;;7.24;100.00;103936.03;5074846;28;19959;-44
2022/01/13 07:06:59;;;;;;;99.93;22.85;;;;;;;7.21;100.00;103930.03;5074595;28;20043;-44
2022/01/13 07:09:24;;;;;;;118.70;22.93;;;;;;;7.25;100.00;103943.06;5075639;28;20349;-44
2022/01/13 07:11:50;;;;;;;127.50;22.43;;;;;;;7.13;100.00;103939.34;5074591;28;20033;-43
2022/01/13 07:14:16;;;;;;;84.00;17.60;;;;;;;7.30;100.00;103942.78;5074808;28;20663;-42
2022/01/13 07:16:43;;;;;;;129.02;22.15;;;;;;;7.48;100.00;103948.72;5074842;28;20059;-42
2022/01/13 07:19:14;;;;;;;112.75;24.15;;;;;;;7.57;100.00;103947.28;5074311;28;20036;-44
2022/01/13 07:21:40;;;;;;;81.47;21.48;;;;;;;7.62;100.00;103947.00;5075284;28;20032;-47
2022/01/13 07:24:07;;;;;;;78.53;18.88;;;;;;;7.40;100.00;103951.88;5074319;28;20036;-42
2022/01/13 07:26:32;;;;;;;;;;;;;;;7.88;100.00;103946.16;5074922;28;20055;-43
2022/01/13 07:28:58;;;;;;;143.57;24.13;;;;;;;7.34;100.00;103948.75;5074146;28;20355;-43
2022/01/13 07:31:23;;;;;;;91.33;14.60;;;;;;;7.27;100.00;103942.97;5056391;28;20492;-42
2022/01/13 07:33:49;;;;;;;107.70;20.63;;;;;;;7.55;100.00;103950.03;5074233;28;20328;-47
2022/01/13 07:36:15;;;;;;;77.28;19.38;;;;;;;7.58;100.00;103944.50;5074584;28;20028;-44
2022/01/13 07:38:40;;;;;;;87.80;20.02;;;;;;;7.57;100.00;103940.13;5056197;28;20506;-43
2022/01/13 07:41:06;;;;;;;106.47;20.65;;;;;;;7.67;100.00;103934.22;5056434;28;20464;-49
2022/01/13 07:43:32;;;;;;;87.82;22.30;;;;;;;8.17;100.00;103940.69;5074111;28;20178;-43
2022/01/13 07:45:58;;;;;;;110.00;22.25;;;;;;;7.94;100.00;103952.03;5074202;28;20499;-45
2022/01/13 07:48:24;;;;;;;89.85;17.98;;;;;;;7.83;100.00;103950.91;5056245;28;20044;-43
2022/01/13 07:50:50;;;;;;;;;;;;;;;7.86;100.00;103950.72;5074317;28;20044;-49
2022/01/13 07:53:16;;;;;;;81.63;20.52;;;;;;;7.89;100.00;103957.66;5073868;28;19991;-48
2022/01/13 07:55:42;;;;;;;88.93;20.35;;;;;;;7.92;100.00;103956.59;5073510;28;20469;-45
2022/01/13 07:58:08;;;;;;;89.55;19.08;;;;;;;7.68;100.00;103962.56;5056073;28;20453;-47
2022/01/13 08:00:34;;;;;;;100.90;22.52;;;;;;;7.74;100.00;103954.19;5073711;28;20040;-43
2022/01/13 08:02:59;;;;;;;87.85;19.15;;;;;;;8.30;100.00;103970.03;5038779;28;20040;-49
2022/01/13 08:05:25;;;;;;;133.63;23.07;;;;;;;7.78;100.00;103966.34;5073626;28;20040;-44
2022/01/13 08:07:50;;;;;;;79.50;20.77;;;;;;;7.57;100.00;103974.75;5073779;28;20033;-44
2022/01/13 08:10:16;;;;;;;123.23;23.20;;;;;;;7.58;100.00;103968.47;5073982;28;20043;-43
2022/01/13 08:12:41;;;;;;;88.50;18.43;;;;;;;7.21;100.00;103970.81;5073253;28;20325;-43
2022/01/13 08:15:12;;;;;;;80.73;18.77;;;;;;;7.21;100.00;103977.94;5073499;28;20048;-43
2022/01/13 08:20:23;;;;;;;82.20;19.75;;;;;;;7.21;100.00;103980.59;5055846;28;20484;-43
2022/01/13 08:22:48;;;;;;;93.50;20.67;;;;;;;7.38;100.00;103971.56;5073595;28;20025;-42
2022/01/13 08:25:17;;;;;;;93.05;20.63;;;;;;;7.70;100.00;103971.31;5055304;28;20296;-43
2022/01/13 08:27:42;;;;;;;70.68;20.45;;;;;;;7.66;100.00;103968.00;5073433;28;20071;-44
2022/01/13 08:30:08;;;;;;;82.30;20.42;;;;;;;7.50;100.00;103975.28;5039159;28;20048;-43
2022/01/13 08:32:34;;;;;;;112.88;22.45;;;;;;;7.67;100.00;103966.19;5073059;28;20336;-44
2022/01/13 08:34:59;;;;;;;98.23;22.23;;;;;;;7.62;100.00;103973.63;5055755;28;20047;-44
2022/01/13 08:37:25;;;;;;;97.97;20.20;;;;;;;7.69;100.00;103969.63;5055124;28;20401;-44
2022/01/13 08:39:51;;;;;;;95.68;20.75;;;;;;;7.93;100.00;103969.81;5073641;28;20040;-43
2022/01/13 08:42:17;;;;;;;99.63;22.05;;;;;;;8.20;100.00;103978.75;5072764;28;20407;-43
2022/01/13 08:44:42;;;;;;;102.65;20.23;;;;;;;7.99;100.00;103976.56;5053768;28;20124;-45
2022/01/13 08:47:09;;;;;;;77.63;19.77;;;;;;;7.96;100.00;103969.63;5072610;28;20147;-43
2022/01/13 08:49:36;;;;;;;78.88;19.70;;;;;;;7.71;100.00;103981.03;5054981;28;20047;-43
2022/01/13 08:52:02;;;;;;;65.43;17.92;;;;;;;7.80;100.00;103984.91;5072858;28;20036;-44
2022/01/13 08:54:28;;;;;;;72.97;18.45;;;;;;;7.67;100.00;103983.03;5072687;28;20043;-43
2022/01/13 08:56:53;;;;;;;87.43;20.77;;;;;;;8.18;100.00;103989.50;5072839;28;20036;-42
2022/01/13 08:59:19;;;;;;;81.72;19.95;;;;;;;7.94;100.00;103989.34;5054658;28;20044;-45
2022/01/13 09:01:45;;;;;;;93.30;22.42;;;;;;;7.98;100.00;103988.16;5055306;28;20063;-45
2022/01/13 09:04:10;;;;;;;88.97;22.40;;;;;;;8.11;100.00;103989.09;5038402;28;20033;-43
2022/01/13 09:06:36;;;;;;;80.53;20.47;;;;;;;7.91;100.00;103997.53;5055241;28;20103;-44
2022/01/13 09:09:02;;;;;;;90.13;20.52;;;;;;;8.12;100.00;104001.47;5072445;28;20032;-43
2022/01/13 09:11:28;;;;;;;74.70;20.20;;;;;;;8.20;100.00;103998.28;5072570;28;20123;-43
2022/01/13 09:13:58;;;;;;;107.67;18.90;;;;;;;8.06;100.00;103996.50;5054751;28;20036;-43
2022/01/13 09:16:30;;;;;;;71.72;19.45;;;;;;;7.94;100.00;103992.84;5038625;28;20324;-43
2022/01/13 09:21:22;;;;;;;73.33;19.50;;;;;;;8.45;100.00;103999.31;5054540;28;20078;-44
2022/01/13 09:23:48;;;;;;;72.10;20.30;;;;;;;8.51;100.00;103996.25;5072561;28;20036;-42
2022/01/13 09:26:13;;;;;;;75.72;20.63;;;;;;;8.27;100.00;104001.38;5072160;28;20040;-43
2022/01/13 09:28:39;;;;;;;66.70;19.58;;;;;;;8.58;100.00;104002.03;5037693;28;20101;-46
2022/01/13 09:31:06;;;;;;;66.97;21.20;;;;;;;8.56;100.00;103993.28;5072099;28;20040;-43
2022/01/13 09:33:33;;;;;;;72.50;19.87;;;;;;;8.53;100.00;103988.13;5054478;28;20036;-45
2022/01/13 09:35:59;;;;;;;;;;;;;;;8.71;100.00;103991.38;5054488;28;20253;-43
2022/01/13 09:38:24;;;;;;;69.17;17.50;;;;;;;8.10;100.00;103987.38;5072303;28;20374;-43
2022/01/13 09:40:52;;;;;;;74.75;19.35;;;;;;;8.15;100.00;103995.91;5053993;28;20276;-43
2022/01/13 09:43:27;;;;;;;93.93;19.00;;;;;;;7.94;100.00;103994.66;5071929;28;20050;-44
2022/01/13 09:45:54;;;;;;;84.72;20.52;;;;;;;7.98;100.00;103996.16;5072035;28;20024;-43
2022/01/13 09:48:20;;;;;;;97.65;24.52;;;;;;;8.23;100.00;103997.22;5054084;28;20491;-43
2022/01/13 09:50:47;;;;;;;78.65;20.77;;;;;;;8.35;100.00;103995.53;5037306;28;20044;-43
2022/01/13 09:53:13;;;;;;;85.03;22.45;;;;;;;8.24;100.00;103997.13;5071963;28;20055;-42
2022/01/13 09:55:43;;;;;;;;;;;;;;;8.31;100.00;104000.25;5072319;28;20063;-46
2022/01/13 09:58:10;;;;;;;89.78;23.45;;;;;;;8.42;100.00;104003.03;5071913;28;19912;-43
2022/01/13 10:00:42;;;;;;;80.00;21.70;;;;;;;8.12;100.00;103993.47;5053773;28;20040;-46
2022/01/13 10:03:19;;;;;;;122.47;25.95;;;;;;;8.52;100.00;104002.44;5054551;28;20334;-43
2022/01/13 10:05:50;;;;;;;87.13;24.70;;;;;;;8.71;100.00;104007.38;5071898;28;20364;-45
2022/01/13 10:08:16;;;;;;;92.13;23.60;;;;;;;8.86;100.00;104005.47;5072191;28;20449;-42
2022/01/13 10:10:42;;;;;;;102.10;23.10;;;;;;;8.51;100.00;104011.38;5072042;28;20112;-43
2022/01/13 10:13:11;;;;;;;93.50;22.97;;;;;;;8.85;100.00;104009.09;5071769;28;20045;-42
2022/01/13 10:18:42;;;;;;;63.05;21.52;;;;;;;8.61;100.00;104007.16;5075675;28;20039;-43
2022/01/13 10:21:13;;;;;;;75.22;22.98;;;;;;;8.97;100.00;104002.91;5075526;28;20199;-43
2022/01/13 10:24:01;;;;;;;75.88;21.60;;;;;;;9.01;100.00;104001.75;5075234;28;20036;-44
2022/01/13 10:26:28;;;;;;;74.95;22.55;;;;;;;9.28;100.00;103999.91;5041462;28;20036;-46
2022/01/13 10:28:54;;;;;;;68.65;21.52;;;;;;;9.36;100.00;103997.56;5074865;28;20056;-44
2022/01/13 10:31:20;;;;;;;69.03;16.67;;;;;;;9.12;100.00;103990.31;5076140;28;20460;-43
2022/01/13 10:33:45;;;;;;;79.75;20.85;;;;;;;8.92;100.00;103993.53;5057470;28;20049;-46
2022/01/13 10:36:13;;;;;;;80.00;20.60;;;;;;;8.89;100.00;103994.59;5057225;28;20036;-44
2022/01/13 10:38:56;;;;;;;107.78;22.85;;;;;;;8.65;100.00;103997.97;5074983;28;20771;-42
2022/01/13 10:42:00;;;;;;;72.68;21.02;;;;;;;8.82;100.00;104003.97;5075022;28;20036;-44
2022/01/13 10:44:18;;;;;;;67.82;19.08;;;;;;;8.84;100.00;103999.41;5073763;28;20044;-45
2022/01/13 10:47:03;;;;;;;99.95;21.92;;;;;;;8.47;100.00;103994.72;5075565;28;20033;-42
2022/01/13 10:49:31;;;;;;;78.45;20.88;;;;;;;8.29;100.00;103999.47;5075074;28;20499;-44
2022/01/13 10:52:35;;;;;;;85.78;20.92;;;;;;;8.31;100.00;103995.75;5074810;28;20052;-43
2022/01/13 10:55:13;;;;;;;88.57;19.17;;;;;;;8.41;100.00;103989.78;5013007;28;20088;-43
2022/01/13 10:57:41;;;;;;;;;;;;;;;8.64;100.00;103982.94;4997085;28;20037;-42
2022/01/13 11:00:15;;;;;;;76.70;18.83;;;;;;;8.60;100.00;103973.44;5047353;28;19916;-44
2022/01/13 11:02:42;;;;;;;87.18;23.38;;;;;;;8.70;100.00;103979.00;5074430;28;20032;-43
2022/01/13 11:05:10;;;;;;;98.43;20.93;;;;;;;8.55;100.00;103980.91;5056601;28;20040;-42
2022/01/13 11:07:37;;;;;;;125.97;24.83;;;;;;;8.21;100.00;103986.66;5074785;28;20285;-42
2022/01/13 11:10:04;;;;;;;;;;;;;;;8.00;100.00;103980.94;5057599;28;20033;-45
2022/01/13 11:12:37;;;;;;;92.45;20.55;;;;;;;8.08;100.00;103967.09;5074158;28;19912;-44
2022/01/13 11:15:07;;;;;;;83.28;21.65;;;;;;;8.17;100.00;103972.69;5057359;28;20033;-44
2022/01/13 11:17:38;;;;;;;71.60;20.85;;;;;;;7.97;100.00;103963.34;5074103;28;20055;-44
2022/01/13 11:20:12;;;;;;;72.15;21.40;;;;;;;8.54;100.00;103980.03;5057135;28;20048;-43
2022/01/13 11:22:40;;;;;;;113.93;24.60;;;;;;;8.27;100.00;103982.72;5056234;28;20043;-43
2022/01/13 11:25:09;;;;;;;97.85;24.60;;;;;;;8.53;100.00;103977.47;5073956;28;20036;-44
2022/01/13 11:27:35;;;;;;;114.35;26.23;;;;;;;8.50;100.00;103978.53;5073709;28;20514;-48
2022/01/13 11:30:04;;;;;;;96.32;23.77;;;;;;;8.38;100.00;103979.31;5073996;28;20040;-44
2022/01/13 11:32:30;;;;;;;87.30;21.73;;;;;;;8.00;100.00;103975.59;5074408;28;20099;-45
2022/01/13 11:34:58;;;;;;;109.13;25.05;;;;;;;8.23;100.00;103975.88;5074760;28;20083;-52
2022/01/13 11:37:30;;;;;;;94.43;24.05;;;;;;;8.75;100.00;103974.19;5074195;28;20090;-47
2022/01/13 11:39:56;;;;;;;75.03;23.08;;;;;;;9.04;100.00;103963.28;5056316;28;20360;-43
2022/01/13 11:42:22;;;;;;;;;;;;;;;8.81;100.00;103970.25;5039746;28;20029;-50
2022/01/13 11:45:09;;;;;;;77.57;22.83;;;;;;;9.25;100.00;103968.94;5074170;28;20010;-47
2022/01/13 11:47:35;;;;;;;104.07;23.60;;;;;;;9.02;100.00;103978.56;5074560;28;20352;-48